Huvudsida
METAR-TAF:

METAR-TAF

Flygplatser :

Heidrun, Norge

latitud: 65-19-30N, longitud: 007-19-36E, höjd: 0 m

Aktuellt väderrapport

Denna rapport gjordes för 26 minuter sedan, klockan 17:20 UTC
Vind 35 kt från nordväst
Temperatur 9°C
Fuktighet 76%
Tryck 983 hPa
Sikt 10 km eller mer
Spridda moln på en höjd av 2000 ft
Brutna moln på en höjd av 7000 ft

METAR: ENHE 221720Z 32035KT 9999 SCT020 BKN070 09/05 Q0983 W///S6

Tid: 19:46 (17:46 UTC)

Väderprognos

Denna rapport gjordes för 46 minuter sedan, klockan 17:00 UTC
Prognos gäller från 22 kl. 18 UTC till 23 kl. 03 UTC
Vind 35 kt från nordväst
Sikt 10 km eller mer
Spridda moln på en höjd av 1800 ft
Brutna moln på en höjd av 3000 ft
lätta regnskurar
Sannolikhet 30% :
Temporärt
från 22 kl. 18 UTC till 23 kl. 03 UTC
Sikt: 4000 m
Brutna moln på en höjd av 1400 ft, Cumulonimbus.
regnskurar

TAF: ENHE 221700Z 2218/2303 32035KT 9999 -SHRA SCT018 BKN030 PROB30 TEMPO 2218/2303 4000 SHRA BKN014CB

Aktuella väderrapporter och prognoser från 4000 flygplatser (METAR- och TAF-rapporter).

De tillgängliga stationerna syns som gula och röda prickar på kartan.

För musen över prickarna för att se namnen på stationerna.

Klicka sedan för att få väderrapporter och prognoser.

För att ändra kartan: Klicka på de gröna knapparna med ett svart kors på för att zooma in; den gröna knappen med ett streck på för att zooma ut; eller på de gröna pilarna för angränsande kartor.


METAR-TAF: